Time;durP1;ratioP1;P1;durP2;ratioP2;P2;SDS_P1;SDS_P2;PMS_P1;PMS_P2;Temp;Humidity;BMP_temperature;BMP_pressure;BME280_temperature;BME280_humidity;BME280_pressure;Samples;Min_cycle;Max_cycle;Signal;HPM_P1;HPM_P2
2021/09/14 00:00:52;;;;;;;3.50;3.20;;;;;;;12.74;79.89;101063.00;5054180;28;20212;-83
2021/09/14 00:03:19;;;;;;;3.50;3.20;;;;;;;12.73;80.32;101058.63;5054480;28;20236;-82
2021/09/14 00:05:46;;;;;;;3.43;3.03;;;;;;;12.70;80.14;101056.19;5051236;28;20305;-82
2021/09/14 00:08:12;;;;;;;22.00;5.47;;;;;;;12.70;80.02;101066.88;5045910;28;20218;-82
2021/09/14 00:10:40;;;;;;;4.77;3.97;;;;;;;12.64;79.71;101064.59;5057240;28;20206;-81
2021/09/14 00:13:07;;;;;;;4.77;4.27;;;;;;;12.58;79.98;101064.97;5045438;28;20224;-82
2021/09/14 00:15:34;;;;;;;5.70;5.00;;;;;;;12.53;80.28;101059.09;5052564;28;20209;-81
2021/09/14 00:18:00;;;;;;;4.10;3.70;;;;;;;12.50;80.24;101064.63;5051956;28;20620;-82
2021/09/14 00:20:27;;;;;;;3.97;3.50;;;;;;;12.48;80.26;101072.75;5051398;28;20675;-82
2021/09/14 00:22:54;;;;;;;3.57;3.27;;;;;;;12.45;80.41;101059.56;5052894;28;20243;-83
2021/09/14 00:25:20;;;;;;;3.87;3.30;;;;;;;12.44;80.71;101062.34;5051926;28;20210;-82
2021/09/14 00:27:48;;;;;;;3.27;2.97;;;;;;;12.43;80.72;101064.16;5053072;28;20579;-82
2021/09/14 00:30:15;;;;;;;3.83;3.43;;;;;;;12.42;80.67;101067.78;5051975;28;20564;-82
2021/09/14 00:32:41;;;;;;;6.07;3.60;;;;;;;12.41;80.86;101066.06;5049082;28;20605;-82
2021/09/14 00:35:08;;;;;;;4.63;3.10;;;;;;;12.41;80.74;101062.53;5052572;28;20209;-82
2021/09/14 00:37:35;;;;;;;3.63;3.33;;;;;;;12.41;81.26;101055.38;5064246;28;20264;-83
2021/09/14 00:40:01;;;;;;;5.23;3.87;;;;;;;12.42;81.36;101058.91;5061426;28;20196;-83
2021/09/14 00:42:28;;;;;;;4.80;3.63;;;;;;;12.41;81.38;101059.88;5052940;28;20233;-84
2021/09/14 00:44:56;;;;;;;5.80;3.60;;;;;;;12.39;81.29;101051.94;5058742;28;20215;-83
2021/09/14 00:47:22;;;;;;;5.90;4.80;;;;;;;12.38;81.27;101049.38;5049739;28;20212;-84
2021/09/14 00:49:49;;;;;;;6.07;5.17;;;;;;;12.34;81.12;101048.75;5051971;28;20736;-83
2021/09/14 00:52:16;;;;;;;8.50;5.80;;;;;;;12.32;81.54;101042.63;5055685;28;20235;-84
2021/09/14 00:54:45;;;;;;;7.10;5.07;;;;;;;12.31;81.88;101054.28;5047149;28;20205;-83
2021/09/14 00:57:12;;;;;;;8.50;5.43;;;;;;;12.30;81.97;101041.88;5051221;28;20206;-83
2021/09/14 00:59:38;;;;;;;6.93;5.43;;;;;;;12.30;82.15;101041.00;5051830;28;20660;-82
2021/09/14 01:02:06;;;;;;;8.00;5.77;;;;;;;12.29;82.27;101042.81;5049654;28;20262;-82
2021/09/14 01:04:33;;;;;;;8.40;6.27;;;;;;;12.24;82.08;101036.91;5053512;28;20208;-83
2021/09/14 01:07:01;;;;;;;6.93;6.07;;;;;;;12.19;82.07;101039.00;5053028;28;20568;-82
2021/09/14 01:09:31;;;;;;;6.50;5.60;;;;;;;12.14;81.96;101031.31;5049817;28;20230;-83
2021/09/14 01:11:59;;;;;;;8.20;5.90;;;;;;;12.09;81.94;101028.06;5051628;28;20629;-82
2021/09/14 01:14:25;;;;;;;10.30;5.93;;;;;;;12.05;81.79;101031.03;5051776;28;20214;-83
2021/09/14 01:16:52;;;;;;;7.70;6.53;;;;;;;12.03;82.01;101027.59;5050359;28;20211;-83
2021/09/14 01:19:20;;;;;;;6.50;5.10;;;;;;;12.00;82.14;101028.63;5060615;28;20580;-83
2021/09/14 01:21:47;;;;;;;6.80;5.33;;;;;;;12.00;82.02;101030.47;5054738;28;20590;-83
2021/09/14 01:24:15;;;;;;;6.03;4.20;;;;;;;11.98;82.31;101021.72;5059271;28;20213;-83
2021/09/14 01:26:41;;;;;;;5.53;4.47;;;;;;;11.98;82.01;101027.06;5051324;28;20624;-83
2021/09/14 01:29:09;;;;;;;4.83;4.10;;;;;;;11.99;82.18;101028.75;5055085;28;20231;-83
2021/09/14 01:31:36;;;;;;;6.17;4.63;;;;;;;11.97;82.14;101028.84;5051461;28;21029;-83
2021/09/14 01:34:04;;;;;;;7.37;5.17;;;;;;;11.98;82.17;101035.91;5056482;28;20644;-83
2021/09/14 01:36:31;;;;;;;5.20;4.17;;;;;;;11.98;82.33;101032.38;5051959;28;20292;-83
2021/09/14 01:38:58;;;;;;;5.47;3.77;;;;;;;11.96;82.27;101027.13;5053846;28;20286;-83
2021/09/14 01:41:26;;;;;;;5.87;3.67;;;;;;;11.93;81.70;101026.47;5063850;28;20201;-82
2021/09/14 01:43:52;;;;;;;5.40;4.43;;;;;;;11.88;81.66;101031.22;5054457;28;20688;-81
2021/09/14 01:46:19;;;;;;;7.13;4.37;;;;;;;11.80;80.94;101023.72;5055043;28;20291;-81
2021/09/14 01:48:45;;;;;;;5.93;3.70;;;;;;;11.71;81.00;101027.78;5056772;28;20223;-82
2021/09/14 01:51:13;;;;;;;3.00;2.63;;;;;;;11.65;80.58;101022.81;5062118;28;20212;-82
2021/09/14 01:53:40;;;;;;;3.30;2.93;;;;;;;11.63;81.14;101023.88;5057510;28;20225;-82
2021/09/14 01:56:07;;;;;;;5.63;3.67;;;;;;;11.61;81.39;101021.31;5058776;28;20202;-82
2021/09/14 01:58:35;;;;;;;3.70;3.07;;;;;;;11.59;81.46;101023.22;5060006;28;20297;-81
2021/09/14 02:01:06;;;;;;;3.17;2.53;;;;;;;11.58;81.46;101020.63;5056275;28;20631;-82
2021/09/14 02:03:40;;;;;;;4.33;3.20;;;;;;;11.55;81.51;101024.34;5055911;28;20317;-81
2021/09/14 02:39:45;;;;;;;9.77;6.00;;;;;;;11.28;81.89;101007.38;5045547;28;20265;-84
2021/09/14 02:58:44;;;;;;;4.03;3.43;;;;;;;11.03;83.32;100991.97;5057147;28;20209;-81
2021/09/14 03:01:14;;;;;;;4.07;3.17;;;;;;;11.03;83.45;100992.84;5067008;28;20201;-81
2021/09/14 03:03:45;;;;;;;4.00;3.60;;;;;;;11.05;83.75;100998.94;5061919;28;20225;-83
2021/09/14 03:06:12;;;;;;;3.40;3.10;;;;;;;11.05;83.78;100998.94;5056002;28;20208;-81
2021/09/14 03:08:39;;;;;;;4.30;3.10;;;;;;;11.05;84.00;101012.25;5068534;28;20666;-81
2021/09/14 03:11:07;;;;;;;6.30;4.33;;;;;;;11.05;84.00;101006.06;5061960;28;20236;-81
2021/09/14 03:13:33;;;;;;;4.43;3.33;;;;;;;11.05;84.06;101012.25;5061868;28;20764;-82
2021/09/14 03:16:00;;;;;;;5.33;3.73;;;;;;;11.05;84.11;101012.25;5058801;28;20208;-81
2021/09/14 03:18:27;;;;;;;5.13;3.87;;;;;;;11.04;84.04;101007.88;5056418;28;20300;-80
2021/09/14 03:20:55;;;;;;;6.83;4.00;;;;;;;11.05;84.17;101012.25;5058644;28;20205;-81
2021/09/14 03:23:23;;;;;;;4.07;3.20;;;;;;;11.06;84.10;100999.78;5055145;28;20239;-80
2021/09/14 03:25:49;;;;;;;5.17;3.07;;;;;;;11.04;84.16;100991.88;5055437;28;20204;-84
2021/09/14 03:28:17;;;;;;;3.20;2.60;;;;;;;11.04;84.05;101005.22;5055482;28;20305;-87
2021/09/14 03:30:44;;;;;;;3.23;2.63;;;;;;;11.03;84.05;101000.84;5050740;28;20199;-85
2021/09/14 03:33:11;;;;;;;3.83;2.70;;;;;;;11.01;83.79;101000.06;5051094;28;20703;-85
2021/09/14 03:35:38;;;;;;;3.77;2.57;;;;;;;10.97;83.83;100998.53;5058150;28;20205;-84
2021/09/14 03:38:06;;;;;;;3.60;3.03;;;;;;;10.96;83.69;101002.13;5062558;28;20206;-84
2021/09/14 03:40:32;;;;;;;6.73;3.00;;;;;;;10.93;83.66;101002.31;5065804;28;20205;-82
2021/09/14 03:42:59;;;;;;;3.60;2.63;;;;;;;10.91;83.53;100990.06;5059129;28;20692;-82
2021/09/14 03:45:27;;;;;;;4.80;3.17;;;;;;;10.89;83.60;100984.81;5054625;28;20660;-84
2021/09/14 03:47:53;;;;;;;5.40;3.77;;;;;;;10.85;83.14;100993.94;5060083;28;20297;-82
2021/09/14 03:50:20;;;;;;;4.33;2.87;;;;;;;10.79;83.17;100994.28;5058836;28;20216;-84
2021/09/14 03:52:47;;;;;;;3.40;2.63;;;;;;;10.73;83.03;100992.84;5055266;28;20227;-82
2021/09/14 03:55:14;;;;;;;3.17;2.63;;;;;;;10.71;83.32;100994.75;5054852;28;20214;-81
2021/09/14 03:57:53;;;;;;;3.23;2.77;;;;;;;10.70;83.08;100989.50;5050427;28;20671;-84
2021/09/14 04:00:21;;;;;;;3.63;2.47;;;;;;;10.69;83.60;100988.66;5040083;28;20285;-85
2021/09/14 04:02:49;;;;;;;3.50;2.77;;;;;;;10.70;83.87;100989.50;5032629;28;20715;-84
2021/09/14 04:05:31;;;;;;;3.03;2.50;;;;;;;10.69;83.54;100985.13;5032848;28;20206;-84
2021/09/14 04:10:42;;;;;;;3.20;2.17;;;;;;;10.69;83.95;100995.78;5032053;28;20264;-85
2021/09/14 04:13:09;;;;;;;2.50;2.20;;;;;;;10.68;83.77;100992.25;5033675;28;20585;-85
2021/09/14 04:15:36;;;;;;;2.43;2.23;;;;;;;10.68;84.20;100989.59;5033445;28;20210;-85
2021/09/14 04:18:03;;;;;;;2.70;1.93;;;;;;;10.67;84.18;100992.34;5033203;28;20214;-83
2021/09/14 04:20:30;;;;;;;2.60;1.90;;;;;;;10.67;83.93;101006.53;5055038;28;20209;-84
2021/09/14 04:22:57;;;;;;;2.67;1.97;;;;;;;10.65;83.90;100997.75;5068537;28;20237;-83
2021/09/14 04:25:23;;;;;;;2.80;2.20;;;;;;;10.65;84.06;100995.09;5055932;28;20205;-83
2021/09/14 04:27:51;;;;;;;2.60;2.40;;;;;;;10.61;83.92;100982.88;5053010;28;20201;-84
2021/09/14 04:30:18;;;;;;;2.13;1.80;;;;;;;10.60;83.83;100985.63;5047656;28;20209;-83
2021/09/14 04:32:45;;;;;;;2.83;1.93;;;;;;;10.52;83.29;100990.56;5034611;28;20229;-84
2021/09/14 04:35:12;;;;;;;2.37;2.00;;;;;;;10.47;83.15;100998.81;5033897;28;20206;-83
2021/09/14 04:37:38;;;;;;;1.63;1.43;;;;;;;10.41;83.19;100997.34;5034804;28;20210;-84
2021/09/14 04:40:07;;;;;;;1.63;1.53;;;;;;;10.36;82.83;100996.78;5034551;28;20260;-84
2021/09/14 04:42:33;;;;;;;3.13;2.00;;;;;;;10.30;82.64;100991.78;5034592;28;20234;-84
2021/09/14 04:45:02;;;;;;;3.00;2.53;;;;;;;10.28;83.52;100998.16;5034776;28;20309;-83
2021/09/14 04:47:28;;;;;;;2.37;2.17;;;;;;;10.22;83.06;100986.03;5034447;28;20296;-83
2021/09/14 04:49:56;;;;;;;1.70;1.60;;;;;;;10.17;82.58;100985.41;5034583;28;20289;-83
2021/09/14 04:52:22;;;;;;;2.40;1.30;;;;;;;10.13;82.12;100991.00;5034611;28;20249;-84
2021/09/14 04:54:49;;;;;;;2.73;1.80;;;;;;;10.01;82.46;100982.75;5034855;28;20216;-83
2021/09/14 04:57:16;;;;;;;1.90;1.70;;;;;;;9.99;82.63;100983.78;5033813;28;20226;-84
2021/09/14 04:59:42;;;;;;;1.70;1.60;;;;;;;9.96;82.91;100983.94;5039032;28;20205;-84
2021/09/14 05:02:10;;;;;;;1.60;1.50;;;;;;;9.98;82.86;100990.06;5046891;28;20239;-83
2021/09/14 05:04:37;;;;;;;2.23;1.83;;;;;;;9.97;82.85;100989.19;5042200;28;20198;-82
2021/09/14 05:07:04;;;;;;;2.10;1.90;;;;;;;9.96;82.94;100987.47;5045768;28;20201;-83
2021/09/14 05:09:30;;;;;;;1.87;1.70;;;;;;;9.97;83.69;100991.00;5047435;28;20216;-83
2021/09/14 05:12:03;;;;;;;2.00;1.57;;;;;;;9.96;83.87;100990.13;5046673;28;20209;-82
2021/09/14 05:14:30;;;;;;;1.67;1.57;;;;;;;9.99;83.66;100984.66;5048571;28;20198;-83
2021/09/14 05:16:56;;;;;;;2.83;2.40;;;;;;;10.02;84.01;100983.63;5051884;28;20205;-83
2021/09/14 05:19:31;;;;;;;4.13;2.70;;;;;;;10.03;83.99;100983.50;5045505;28;20217;-84
2021/09/14 05:22:00;;;;;;;3.77;2.60;;;;;;;10.07;84.01;100982.41;5046112;28;20202;-82
2021/09/14 05:24:27;;;;;;;3.53;3.00;;;;;;;10.11;84.51;100985.75;5045576;28;20629;-82
2021/09/14 05:26:55;;;;;;;2.60;2.33;;;;;;;10.15;84.83;100981.13;5055712;28;20246;-80
2021/09/14 05:29:22;;;;;;;4.93;3.53;;;;;;;10.16;84.32;100977.53;5055540;28;20208;-80
2021/09/14 05:31:48;;;;;;;5.50;2.37;;;;;;;10.16;84.43;100977.53;5047919;28;20294;-80
2021/09/14 05:34:15;;;;;;;3.27;2.80;;;;;;;10.17;84.39;100976.56;5064532;28;20206;-80
2021/09/14 05:36:44;;;;;;;2.93;2.27;;;;;;;10.18;84.59;100975.63;5058332;28;20201;-82
2021/09/14 05:39:10;;;;;;;2.80;2.00;;;;;;;10.20;84.93;100981.75;5058683;28;20335;-81
2021/09/14 05:41:37;;;;;;;2.33;2.10;;;;;;;10.22;84.59;100977.19;5049737;28;20207;-79
2021/09/14 05:44:04;;;;;;;3.90;2.77;;;;;;;10.26;85.08;100970.75;5056272;28;20599;-78
2021/09/14 05:46:30;;;;;;;3.27;2.23;;;;;;;10.30;84.98;100967.84;5052231;28;20209;-79
2021/09/14 05:48:57;;;;;;;2.63;2.33;;;;;;;10.36;85.42;100970.16;5046076;28;20206;-78
2021/09/14 05:51:24;;;;;;;6.90;3.20;;;;;;;10.41;85.35;100970.72;5056608;28;20209;-78
2021/09/14 05:53:52;;;;;;;5.73;3.50;;;;;;;10.49;85.81;100972.09;5061206;28;20230;-78
2021/09/14 05:56:18;;;;;;;11.27;5.40;;;;;;;10.56;86.06;100969.00;5068065;28;20209;-78
2021/09/14 05:58:45;;;;;;;12.27;5.97;;;;;;;10.63;86.48;100957.03;5055883;28;20279;-77
2021/09/14 06:01:13;;;;;;;14.60;7.13;;;;;;;10.71;86.37;100964.59;5047375;28;20437;-78
2021/09/14 06:03:40;;;;;;;11.80;6.50;;;;;;;10.80;86.83;100969.34;5043971;28;20719;-83
2021/09/14 06:06:08;;;;;;;21.73;8.00;;;;;;;10.89;87.03;100967.97;5044953;28;20803;-83
2021/09/14 06:08:34;;;;;;;41.00;10.03;;;;;;;10.96;86.96;100963.97;5041967;28;20202;-83
2021/09/14 06:11:02;;;;;;;22.97;8.07;;;;;;;11.00;87.14;100974.34;5045737;28;20578;-82
2021/09/14 06:13:29;;;;;;;24.43;9.00;;;;;;;11.07;87.38;100978.38;5044878;28;20775;-82
2021/09/14 06:15:55;;;;;;;34.67;9.57;;;;;;;11.13;87.69;100970.00;5038654;28;20291;-82
2021/09/14 06:18:22;;;;;;;34.00;9.47;;;;;;;11.21;87.87;100974.88;5052411;28;20201;-83
2021/09/14 06:20:48;;;;;;;21.70;9.03;;;;;;;11.28;87.94;100975.38;5058583;28;20572;-82
2021/09/14 06:23:15;;;;;;;18.30;8.57;;;;;;;11.34;88.06;100974.97;5064399;28;20664;-82
2021/09/14 06:25:42;;;;;;;23.23;8.10;;;;;;;11.41;88.10;100982.53;5051903;28;20210;-82
2021/09/14 06:28:10;;;;;;;11.70;7.43;;;;;;;11.49;88.21;100974.03;5048881;28;20208;-81
2021/09/14 06:30:36;;;;;;;14.53;7.87;;;;;;;11.59;88.29;100979.66;5042247;28;20210;-82
2021/09/14 06:33:03;;;;;;;19.23;7.77;;;;;;;11.68;88.58;100979.94;5044195;28;20226;-82
2021/09/14 06:35:29;;;;;;;12.67;7.33;;;;;;;11.79;88.81;100972.16;5039760;28;20208;-82
2021/09/14 06:37:56;;;;;;;14.70;7.00;;;;;;;11.89;88.77;100969.75;5059663;28;20294;-82
2021/09/14 06:40:23;;;;;;;11.70;6.83;;;;;;;11.99;88.41;100970.03;5051434;28;20208;-81
2021/09/14 06:42:49;;;;;;;7.90;5.97;;;;;;;12.09;88.28;100966.66;5054257;28;20694;-81
2021/09/14 06:45:17;;;;;;;7.90;5.83;;;;;;;12.17;88.12;100963.50;5058669;28;20683;-81
2021/09/14 06:47:44;;;;;;;9.57;6.47;;;;;;;12.24;87.98;100951.47;5057573;28;20423;-81
2021/09/14 06:50:11;;;;;;;9.00;6.27;;;;;;;12.33;87.95;100950.88;5057807;28;20260;-82
2021/09/14 06:52:38;;;;;;;11.50;7.07;;;;;;;12.44;88.30;100950.16;5058674;28;20228;-82
2021/09/14 06:55:05;;;;;;;10.57;6.43;;;;;;;12.55;88.15;100950.28;5051631;28;20205;-82
2021/09/14 06:57:31;;;;;;;11.10;7.43;;;;;;;12.67;88.26;100948.63;5058260;28;20207;-82
2021/09/14 06:59:58;;;;;;;11.00;6.87;;;;;;;12.80;88.01;100947.69;5058787;28;20203;-82
2021/09/14 07:02:26;;;;;;;10.87;7.23;;;;;;;12.92;87.93;100940.63;5053852;28;20241;-82
2021/09/14 07:04:53;;;;;;;9.90;7.17;;;;;;;13.05;87.72;100938.84;5051502;28;20313;-82
2021/09/14 07:07:20;;;;;;;10.43;7.13;;;;;;;13.18;87.94;100939.75;5060302;28;20208;-80
2021/09/14 07:09:46;;;;;;;11.20;8.77;;;;;;;13.34;88.05;100941.34;5052138;28;20205;-81
2021/09/14 07:12:13;;;;;;;11.70;8.50;;;;;;;13.48;87.61;100941.22;5055713;28;20662;-81
2021/09/14 07:14:39;;;;;;;9.77;7.83;;;;;;;13.61;87.60;100946.56;5053212;28;20202;-81
2021/09/14 07:17:06;;;;;;;18.93;10.70;;;;;;;13.75;87.30;100949.13;5062813;28;20652;-81
2021/09/14 07:19:34;;;;;;;21.50;10.83;;;;;;;13.87;86.82;100949.06;5059663;28;20667;-82
2021/09/14 07:22:00;;;;;;;15.97;11.60;;;;;;;14.00;86.40;100943.69;5052844;28;20213;-82
2021/09/14 07:24:27;;;;;;;13.47;10.13;;;;;;;14.12;86.00;100939.25;5050788;28;20229;-81
2021/09/14 07:26:54;;;;;;;13.47;8.43;;;;;;;14.25;85.47;100940.06;5048571;28;20209;-82
2021/09/14 07:29:20;;;;;;;11.70;8.27;;;;;;;14.38;85.62;100940.84;5044232;28;20202;-82
2021/09/14 07:31:50;;;;;;;11.53;7.53;;;;;;;14.52;84.56;100935.34;5041775;28;20301;-82
2021/09/14 07:34:17;;;;;;;11.87;8.40;;;;;;;14.66;84.60;100942.38;5039162;28;20238;-81
2021/09/14 07:36:45;;;;;;;28.03;9.27;;;;;;;14.83;83.96;100930.34;5043763;28;20210;-83
2021/09/14 07:39:12;;;;;;;9.00;7.40;;;;;;;15.00;83.67;100940.63;5038414;28;20225;-83
2021/09/14 07:41:38;;;;;;;12.17;7.30;;;;;;;15.16;83.13;100941.16;5041820;28;20579;-83
2021/09/14 07:44:05;;;;;;;8.43;7.60;;;;;;;15.29;81.99;100936.53;5039522;28;20520;-83
2021/09/14 07:46:32;;;;;;;13.53;7.90;;;;;;;15.44;81.47;100930.94;5037997;28;20688;-83
2021/09/14 07:48:58;;;;;;;9.60;7.23;;;;;;;15.58;81.11;100942.34;5042934;28;20208;-83
2021/09/14 07:51:25;;;;;;;8.80;7.10;;;;;;;15.75;80.33;100940.13;5042932;28;20206;-83
2021/09/14 07:53:53;;;;;;;14.07;7.30;;;;;;;15.91;80.12;100936.09;5046144;28;20218;-83
2021/09/14 07:56:19;;;;;;;10.07;7.77;;;;;;;16.07;79.52;100933.00;5043218;28;20576;-82
2021/09/14 07:58:46;;;;;;;8.70;6.77;;;;;;;16.23;78.76;100930.75;5042558;28;20211;-83
2021/09/14 08:01:13;;;;;;;8.60;7.40;;;;;;;16.40;77.99;100933.88;5049633;28;20198;-83
2021/09/14 08:03:39;;;;;;;10.97;7.70;;;;;;;16.52;77.49;100932.84;5046293;28;20231;-83
2021/09/14 08:06:06;;;;;;;11.57;7.73;;;;;;;16.69;76.94;100936.84;5047730;28;20208;-83
2021/09/14 08:08:32;;;;;;;9.97;7.30;;;;;;;16.85;76.29;100929.16;5043072;28;20206;-84
2021/09/14 08:11:00;;;;;;;9.30;7.60;;;;;;;17.00;75.58;100933.28;5053612;28;20203;-83
2021/09/14 08:13:27;;;;;;;10.43;7.80;;;;;;;17.13;74.76;100933.91;5042180;28;20235;-83
2021/09/14 08:15:53;;;;;;;10.87;8.07;;;;;;;17.28;73.99;100937.13;5043541;28;20209;-82
2021/09/14 08:18:20;;;;;;;10.63;8.30;;;;;;;17.43;73.43;100938.47;5048986;28;20212;-83
2021/09/14 08:20:46;;;;;;;11.13;7.70;;;;;;;17.60;73.22;100943.22;5044627;28;20219;-82
2021/09/14 08:23:13;;;;;;;8.67;7.10;;;;;;;17.75;72.18;100943.72;5044692;28;20234;-82
2021/09/14 08:25:41;;;;;;;8.60;6.77;;;;;;;17.86;71.75;100940.97;5037398;28;20209;-83
2021/09/14 08:28:08;;;;;;;8.70;6.83;;;;;;;18.02;71.55;100943.97;5035992;28;20258;-83
2021/09/14 08:30:35;;;;;;;9.43;7.30;;;;;;;18.16;71.06;100934.63;5042656;28;20212;-83
2021/09/14 08:33:02;;;;;;;11.67;7.57;;;;;;;18.28;70.62;100932.66;5048863;28;20222;-80
2021/09/14 08:35:28;;;;;;;7.60;6.80;;;;;;;18.39;70.37;100936.09;5060054;28;20206;-82
2021/09/14 08:37:55;;;;;;;9.03;7.10;;;;;;;18.52;69.97;100941.22;5065306;28;20668;-82
2021/09/14 08:40:21;;;;;;;8.20;7.13;;;;;;;18.67;69.59;100930.88;5074402;28;20208;-82
2021/09/14 08:42:49;;;;;;;6.87;6.17;;;;;;;18.82;69.26;100928.59;5064785;28;20240;-82
2021/09/14 08:45:17;;;;;;;8.30;6.30;;;;;;;18.95;68.93;100927.31;5054844;28;20236;-82
2021/09/14 08:47:45;;;;;;;8.50;6.03;;;;;;;19.10;68.67;100929.56;5066809;28;20224;-82
2021/09/14 08:50:12;;;;;;;6.90;6.17;;;;;;;19.23;68.13;100930.94;5063096;28;20202;-82
2021/09/14 08:52:38;;;;;;;6.97;5.77;;;;;;;19.35;68.17;100929.78;5058363;28;20224;-81
2021/09/14 08:55:06;;;;;;;6.63;6.03;;;;;;;19.47;67.25;100926.91;5061995;28;20637;-82
2021/09/14 08:57:33;;;;;;;7.43;6.07;;;;;;;19.61;67.23;100921.91;5058415;28;20211;-82
2021/09/14 09:00:00;;;;;;;6.97;6.30;;;;;;;19.73;66.91;100922.53;5058490;28;20544;-83
2021/09/14 09:02:28;;;;;;;6.33;5.53;;;;;;;19.84;66.35;100924.22;5058626;28;20231;-82
2021/09/14 09:04:56;;;;;;;6.10;5.50;;;;;;;19.94;66.19;100909.63;5058296;28;20229;-83
2021/09/14 09:07:36;;;;;;;6.13;5.53;;;;;;;20.02;65.87;100911.59;5058681;28;20211;-82
2021/09/14 09:10:14;;;;;;;6.77;6.00;;;;;;;20.05;65.46;100914.84;5038557;28;20646;-82
2021/09/14 09:12:42;;;;;;;8.40;6.37;;;;;;;20.16;65.43;100919.19;5038359;28;20584;-82
2021/09/14 09:15:11;;;;;;;7.27;5.77;;;;;;;20.26;65.44;100911.84;5038273;28;20210;-82
2021/09/14 09:17:39;;;;;;;6.37;5.40;;;;;;;20.39;64.99;100914.22;5038142;28;20220;-82
2021/09/14 09:20:07;;;;;;;6.53;5.70;;;;;;;20.50;64.69;100910.44;5037629;28;20263;-82
2021/09/14 09:22:34;;;;;;;6.23;5.63;;;;;;;20.65;64.24;100917.00;5037806;28;20306;-82
2021/09/14 09:25:03;;;;;;;7.43;5.35;;;;;;;20.72;63.61;100910.81;5037363;28;20232;-81
2021/09/14 09:27:31;;;;;;;6.78;6.07;;;;;;;20.80;63.42;100913.56;5037425;28;20209;-81
2021/09/14 09:29:59;;;;;;;6.20;5.70;;;;;;;20.94;63.23;100916.75;5073751;28;20210;-84
2021/09/14 09:32:26;;;;;;;6.38;5.78;;;;;;;21.05;63.03;100916.47;5078065;28;20232;-81
2021/09/14 09:34:59;;;;;;;6.72;5.50;;;;;;;21.19;63.05;100910.47;5064555;28;20684;-81
2021/09/14 09:37:26;;;;;;;6.13;5.57;;;;;;;21.37;62.85;100915.88;5064400;28;20201;-81
2021/09/14 09:39:53;;;;;;;6.28;5.72;;;;;;;21.47;62.12;100920.19;5062092;28;20824;-81
2021/09/14 09:42:20;;;;;;;6.70;6.07;;;;;;;21.58;61.38;100907.34;5078236;28;20235;-81
2021/09/14 09:44:55;;;;;;;7.50;6.80;;;;;;;21.66;61.17;100905.53;5077402;28;20256;-81
2021/09/14 09:47:22;;;;;;;6.32;5.82;;;;;;;21.72;60.44;100909.44;5077296;28;20214;-81
2021/09/14 09:49:49;;;;;;;8.98;6.22;;;;;;;21.77;60.65;100902.53;5071561;28;20296;-85
2021/09/14 09:52:18;;;;;;;14.85;6.78;;;;;;;21.85;60.48;100909.00;5060138;28;20236;-80
2021/09/14 09:54:46;;;;;;;7.47;6.25;;;;;;;21.89;60.30;100905.78;5054228;28;20230;-80
2021/09/14 09:57:13;;;;;;;7.22;6.50;;;;;;;21.93;60.09;100904.44;5053739;28;20233;-81
2021/09/14 09:59:40;;;;;;;7.40;6.50;;;;;;;21.95;59.96;100897.00;5053043;28;20202;-81
2021/09/14 10:02:15;;;;;;;7.47;6.80;;;;;;;21.94;59.71;100891.72;5048408;28;20232;-81
2021/09/14 10:04:47;;;;;;;7.97;6.97;;;;;;;21.94;59.67;100892.56;5058169;28;20219;-81
2021/09/14 10:07:14;;;;;;;10.52;6.85;;;;;;;21.96;59.61;100887.00;5057550;28;20547;-81
2021/09/14 10:09:54;;;;;;;6.95;6.25;;;;;;;22.00;59.84;100877.56;5054638;28;20197;-81
2021/09/14 10:12:28;;;;;;;7.65;6.85;;;;;;;22.04;59.57;100881.59;5052683;28;20233;-81
2021/09/14 10:15:03;;;;;;;7.03;6.30;;;;;;;22.10;59.21;100872.81;5049065;28;20535;-81
2021/09/14 10:17:30;;;;;;;7.18;6.47;;;;;;;22.15;59.27;100868.59;5060910;28;20570;-81
2021/09/14 10:20:08;;;;;;;7.32;6.72;;;;;;;22.21;58.89;100861.66;5062586;28;20205;-81
2021/09/14 10:22:35;;;;;;;7.35;6.13;;;;;;;22.23;58.88;100859.59;5057967;28;20217;-82
2021/09/14 10:25:04;;;;;;;6.32;5.70;;;;;;;22.28;58.75;100853.69;5060748;28;20225;-82
2021/09/14 10:27:36;;;;;;;7.50;6.70;;;;;;;22.30;58.48;100857.09;5062702;28;20283;-82
2021/09/14 10:30:04;;;;;;;10.35;5.65;;;;;;;22.32;58.56;100857.78;5070859;28;20205;-82
2021/09/14 10:32:38;;;;;;;6.35;5.75;;;;;;;22.33;58.18;100852.19;5056672;28;20225;-83
2021/09/14 10:35:06;;;;;;;7.88;6.28;;;;;;;22.35;58.19;100862.88;5059143;28;20203;-82
2021/09/14 10:37:33;;;;;;;7.10;6.40;;;;;;;22.34;58.10;100861.16;5067078;28;20642;-83
2021/09/14 10:40:10;;;;;;;6.50;5.82;;;;;;;22.33;58.37;100852.19;5055966;28;20646;-83
2021/09/14 10:42:39;;;;;;;7.43;6.72;;;;;;;22.38;58.19;100852.53;5063297;28;20228;-83
2021/09/14 10:45:08;;;;;;;7.22;5.80;;;;;;;22.42;58.47;100844.88;5063870;28;20307;-83
2021/09/14 10:47:40;;;;;;;6.43;5.75;;;;;;;22.46;58.36;100838.94;5064304;28;20209;-83
2021/09/14 10:50:08;;;;;;;6.05;5.55;;;;;;;22.48;57.93;100844.22;5075864;28;20213;-83
2021/09/14 10:52:36;;;;;;;6.57;5.97;;;;;;;22.55;57.99;100847.09;5052679;28;20225;-82
2021/09/14 10:55:09;;;;;;;6.22;5.72;;;;;;;22.64;57.67;100851.50;5067763;28;20207;-82
2021/09/14 10:57:37;;;;;;;6.60;6.10;;;;;;;22.71;57.32;100853.38;5057434;28;20651;-82
2021/09/14 11:00:06;;;;;;;6.65;5.95;;;;;;;22.82;57.30;100854.91;5063037;28;20208;-81
2021/09/14 11:02:33;;;;;;;10.20;9.10;;;;;;;22.90;56.51;100846.78;5055728;28;20229;-81
2021/09/14 11:05:00;;;;;;;8.15;7.38;;;;;;;22.97;56.34;100844.19;5068455;28;20228;-82
2021/09/14 11:07:29;;;;;;;7.93;7.05;;;;;;;23.06;55.87;100835.03;5061682;28;20292;-82
2021/09/14 11:09:56;;;;;;;6.15;5.28;;;;;;;23.16;56.02;100827.50;5067707;28;20193;-82
2021/09/14 11:12:27;;;;;;;5.95;5.45;;;;;;;23.27;55.54;100827.16;5066742;28;20233;-81
2021/09/14 11:14:56;;;;;;;7.68;6.18;;;;;;;23.37;55.40;100826.94;5060289;28;20193;-81
2021/09/14 11:17:24;;;;;;;6.43;5.80;;;;;;;23.45;54.79;100830.47;5055535;28;20209;-81
2021/09/14 11:19:52;;;;;;;6.95;5.50;;;;;;;23.53;54.86;100826.88;5055791;28;20201;-81
2021/09/14 11:22:29;;;;;;;6.60;5.93;;;;;;;23.60;54.42;100822.44;5060905;28;20722;-81
2021/09/14 11:24:55;;;;;;;5.32;4.93;;;;;;;23.64;54.32;100823.81;5056670;28;20778;-82
2021/09/14 11:27:22;;;;;;;5.20;4.78;;;;;;;23.69;54.66;100815.94;5060448;28;20689;-81
2021/09/14 11:29:50;;;;;;;5.88;5.35;;;;;;;23.77;54.27;100809.63;5063565;28;20672;-81
2021/09/14 11:32:18;;;;;;;5.53;4.85;;;;;;;23.83;54.10;100800.72;5056325;28;20233;-81
2021/09/14 11:34:46;;;;;;;5.93;4.95;;;;;;;23.90;54.23;100809.88;5058079;28;20210;-81
2021/09/14 11:37:13;;;;;;;5.55;4.90;;;;;;;23.95;53.83;100809.34;5054027;28;20276;-81
2021/09/14 11:39:39;;;;;;;4.75;4.35;;;;;;;23.99;53.87;100810.69;5063144;28;20201;-82
2021/09/14 11:42:09;;;;;;;4.90;4.50;;;;;;;24.04;53.52;100806.38;5060305;28;20236;-82
2021/09/14 11:44:35;;;;;;;5.03;4.57;;;;;;;24.07;53.13;100800.56;5060465;28;20225;-82
2021/09/14 11:47:09;;;;;;;5.90;5.18;;;;;;;24.15;53.22;100795.09;5055435;28;20202;-82
2021/09/14 11:49:35;;;;;;;7.43;4.30;;;;;;;24.21;53.61;100805.22;5072750;28;20234;-82
2021/09/14 11:52:04;;;;;;;6.00;4.82;;;;;;;24.26;53.48;100791.09;5065800;28;20206;-82
2021/09/14 11:54:34;;;;;;;5.38;4.90;;;;;;;24.32;52.65;100792.25;5060727;28;20607;-82
2021/09/14 11:57:01;;;;;;;5.75;4.28;;;;;;;24.36;52.92;100785.44;5057193;28;20201;-82
2021/09/14 11:59:31;;;;;;;6.00;4.68;;;;;;;24.42;53.02;100784.69;5058975;28;20648;-82
2021/09/14 12:01:58;;;;;;;5.15;4.65;;;;;;;24.45;52.54;100784.31;5053564;28;20263;-81
2021/09/14 12:04:26;;;;;;;4.63;4.22;;;;;;;24.45;52.29;100779.72;5055274;28;20538;-82
2021/09/14 12:06:54;;;;;;;5.10;4.60;;;;;;;24.44;52.33;100778.03;5044532;28;20632;-81
2021/09/14 12:09:22;;;;;;;4.68;4.30;;;;;;;24.45;52.43;100773.41;5052327;28;20671;-82
2021/09/14 12:11:59;;;;;;;10.30;4.45;;;;;;;24.46;53.05;100775.13;5050206;28;20209;-82
2021/09/14 12:14:26;;;;;;;5.85;4.15;;;;;;;24.47;53.26;100774.09;5052898;28;20563;-81
2021/09/14 12:16:57;;;;;;;6.07;4.97;;;;;;;24.49;52.95;100763.88;5049370;28;20217;-80
2021/09/14 12:19:26;;;;;;;5.55;5.03;;;;;;;24.51;53.18;100765.38;5048871;28;20201;-81